This is the latest recevied weather packets stored in our database for station/object EA1HTW-1. If no packets are shown the sender has not sent any weather packets the latest 10 day(s).
| Time | Temp. | Humidity | Pressure | Rain* | Wind** | Luminosity | Snow |
|---|---|---|---|---|---|---|---|
| 1777908564 | 13.33° C | 83% | 987 hPa | 0 mm | - | - | - |
| 1777907364 | 12.78° C | 81% | 987.1 hPa | 0 mm | - | - | - |
| 1777906762 | 13.33° C | 73% | 987.4 hPa | 0 mm | - | - | - |
| 1777906164 | 13.33° C | 73% | 987.3 hPa | 0 mm | - | - | - |
| 1777904363 | 15.56° C | 71% | 987.1 hPa | 0 mm | - | - | - |
| 1777903763 | 14.44° C | 73% | 987.1 hPa | 0 mm | - | - | - |
| 1777903162 | 14.44° C | 73% | 987.2 hPa | 0 mm | - | - | - |
| 1777902562 | 15° C | 70% | 987.1 hPa | 0 mm | - | - | - |
| 1777901963 | 14.44° C | 74% | 987.2 hPa | 0 mm | - | - | - |
| 1777901365 | 14.44° C | 75% | 987.2 hPa | 0 mm | - | - | - |
| 1777900762 | 15° C | 73% | 987.1 hPa | 0 mm | - | - | - |
| 1777900163 | 14.44° C | 72% | 987.4 hPa | 0 mm | - | - | - |
| 1777899563 | 13.33° C | 74% | 987.5 hPa | 0 mm | - | - | - |
| 1777897763 | 12.78° C | 85% | 987.6 hPa | 0 mm | - | - | - |
| 1777897160 | 12.22° C | 84% | 987.8 hPa | 0 mm | - | - | - |
| 1777895961 | 12.78° C | 86% | 987.7 hPa | 1.78 mm | - | - | - |
| 1777895363 | 12.22° C | 89% | 987.9 hPa | 1.78 mm | - | - | - |
| 1777894762 | 11.11° C | 91% | 987.8 hPa | 1.78 mm | - | - | - |
| 1777894163 | 10.56° C | 90% | 988 hPa | 1.78 mm | - | - | - |
| 1777893563 | 10.56° C | 90% | 988.1 hPa | 1.78 mm | - | - | - |
| 1777892963 | 10.56° C | 87% | 988.3 hPa | 0.25 mm | - | - | - |
| 1777891761 | 12.78° C | 75% | 987.8 hPa | 0 mm | - | - | - |
| 1777891163 | 13.89° C | 70% | 987.7 hPa | 0 mm | - | - | - |
| 1777890562 | 15° C | 73% | 987.5 hPa | 0 mm | - | - | - |
| 1777889960 | 14.44° C | 74% | 987.7 hPa | 0 mm | - | - | - |
* Rain latest hour (hover to see other rain measurements)
** Current wind speed in m/s (hover to see current wind gust speed)